sensor_id;sensor_type;location;lat;lon;timestamp;P1;durP1;ratioP1;P2;durP2;ratioP2
30398;SDS011;17195;50.838;7.214;2023-07-31T00:01:59;5.57;;;2.67;;
30398;SDS011;17195;50.838;7.214;2023-07-31T00:04:24;4.88;;;2.28;;
30398;SDS011;17195;50.838;7.214;2023-07-31T00:06:50;5.22;;;2.45;;
30398;SDS011;17195;50.838;7.214;2023-07-31T00:09:16;8.52;;;2.80;;
30398;SDS011;17195;50.838;7.214;2023-07-31T00:11:41;5.82;;;2.65;;
30398;SDS011;17195;50.838;7.214;2023-07-31T00:14:07;7.93;;;2.72;;
30398;SDS011;17195;50.838;7.214;2023-07-31T00:16:32;6.15;;;2.22;;
30398;SDS011;17195;50.838;7.214;2023-07-31T00:18:58;6.20;;;2.28;;
30398;SDS011;17195;50.838;7.214;2023-07-31T00:21:23;5.30;;;2.60;;
30398;SDS011;17195;50.838;7.214;2023-07-31T00:23:49;6.88;;;2.40;;
30398;SDS011;17195;50.838;7.214;2023-07-31T00:26:15;6.25;;;2.83;;
30398;SDS011;17195;50.838;7.214;2023-07-31T00:28:40;6.47;;;2.70;;
30398;SDS011;17195;50.838;7.214;2023-07-31T00:31:06;5.55;;;2.83;;
30398;SDS011;17195;50.838;7.214;2023-07-31T00:33:31;5.38;;;2.63;;
30398;SDS011;17195;50.838;7.214;2023-07-31T00:35:59;7.00;;;2.58;;
30398;SDS011;17195;50.838;7.214;2023-07-31T00:38:24;4.53;;;2.72;;
30398;SDS011;17195;50.838;7.214;2023-07-31T00:40:50;4.45;;;2.90;;
30398;SDS011;17195;50.838;7.214;2023-07-31T00:43:15;9.40;;;3.17;;
30398;SDS011;17195;50.838;7.214;2023-07-31T00:45:41;7.43;;;2.92;;
30398;SDS011;17195;50.838;7.214;2023-07-31T00:48:07;8.98;;;3.17;;
30398;SDS011;17195;50.838;7.214;2023-07-31T00:50:33;8.88;;;2.78;;
30398;SDS011;17195;50.838;7.214;2023-07-31T00:52:59;5.88;;;3.10;;
30398;SDS011;17195;50.838;7.214;2023-07-31T00:55:25;5.30;;;2.67;;
30398;SDS011;17195;50.838;7.214;2023-07-31T00:57:51;4.95;;;2.72;;
30398;SDS011;17195;50.838;7.214;2023-07-31T01:00:18;5.43;;;2.60;;
30398;SDS011;17195;50.838;7.214;2023-07-31T01:02:44;4.70;;;2.40;;
30398;SDS011;17195;50.838;7.214;2023-07-31T01:05:10;5.80;;;3.10;;
30398;SDS011;17195;50.838;7.214;2023-07-31T01:07:49;4.50;;;2.42;;
30398;SDS011;17195;50.838;7.214;2023-07-31T01:10:21;5.25;;;2.60;;
30398;SDS011;17195;50.838;7.214;2023-07-31T01:12:51;5.32;;;2.25;;
30398;SDS011;17195;50.838;7.214;2023-07-31T01:15:18;7.03;;;2.65;;
30398;SDS011;17195;50.838;7.214;2023-07-31T01:17:44;4.28;;;1.95;;
30398;SDS011;17195;50.838;7.214;2023-07-31T01:20:11;7.20;;;2.10;;
30398;SDS011;17195;50.838;7.214;2023-07-31T01:27:59;3.90;;;2.25;;
30398;SDS011;17195;50.838;7.214;2023-07-31T01:30:32;4.88;;;2.15;;
30398;SDS011;17195;50.838;7.214;2023-07-31T01:33:00;4.13;;;1.88;;
30398;SDS011;17195;50.838;7.214;2023-07-31T01:35:32;5.13;;;2.30;;
30398;SDS011;17195;50.838;7.214;2023-07-31T01:37:58;7.10;;;2.20;;
30398;SDS011;17195;50.838;7.214;2023-07-31T01:40:24;3.13;;;1.88;;
30398;SDS011;17195;50.838;7.214;2023-07-31T01:42:49;4.05;;;2.05;;
30398;SDS011;17195;50.838;7.214;2023-07-31T01:45:15;4.07;;;2.13;;
30398;SDS011;17195;50.838;7.214;2023-07-31T01:47:40;3.15;;;1.60;;
30398;SDS011;17195;50.838;7.214;2023-07-31T01:50:06;4.50;;;2.15;;
30398;SDS011;17195;50.838;7.214;2023-07-31T01:52:32;5.72;;;2.45;;
30398;SDS011;17195;50.838;7.214;2023-07-31T01:54:57;3.05;;;1.80;;
30398;SDS011;17195;50.838;7.214;2023-07-31T01:57:23;7.28;;;2.28;;
30398;SDS011;17195;50.838;7.214;2023-07-31T01:59:48;3.10;;;2.10;;
30398;SDS011;17195;50.838;7.214;2023-07-31T02:02:15;3.67;;;2.00;;
30398;SDS011;17195;50.838;7.214;2023-07-31T02:04:41;4.82;;;1.80;;
30398;SDS011;17195;50.838;7.214;2023-07-31T02:07:06;3.53;;;1.88;;
30398;SDS011;17195;50.838;7.214;2023-07-31T02:09:32;6.90;;;2.30;;
30398;SDS011;17195;50.838;7.214;2023-07-31T02:11:57;3.35;;;1.70;;
30398;SDS011;17195;50.838;7.214;2023-07-31T02:14:23;3.08;;;1.83;;
30398;SDS011;17195;50.838;7.214;2023-07-31T02:16:49;6.00;;;2.15;;
30398;SDS011;17195;50.838;7.214;2023-07-31T02:19:15;5.40;;;1.88;;
30398;SDS011;17195;50.838;7.214;2023-07-31T02:21:40;7.90;;;1.90;;
30398;SDS011;17195;50.838;7.214;2023-07-31T02:24:06;3.47;;;1.88;;
30398;SDS011;17195;50.838;7.214;2023-07-31T02:26:31;9.27;;;2.17;;
30398;SDS011;17195;50.838;7.214;2023-07-31T02:28:57;2.67;;;1.95;;
30398;SDS011;17195;50.838;7.214;2023-07-31T02:31:22;4.18;;;2.28;;
30398;SDS011;17195;50.838;7.214;2023-07-31T02:33:48;3.00;;;1.92;;
30398;SDS011;17195;50.838;7.214;2023-07-31T02:36:13;4.38;;;1.85;;
30398;SDS011;17195;50.838;7.214;2023-07-31T02:38:39;3.25;;;1.95;;
30398;SDS011;17195;50.838;7.214;2023-07-31T02:41:05;4.93;;;2.22;;
30398;SDS011;17195;50.838;7.214;2023-07-31T02:43:30;5.15;;;2.15;;
30398;SDS011;17195;50.838;7.214;2023-07-31T02:45:56;5.00;;;2.42;;
30398;SDS011;17195;50.838;7.214;2023-07-31T02:48:22;3.90;;;2.05;;
30398;SDS011;17195;50.838;7.214;2023-07-31T02:50:47;4.47;;;2.25;;
30398;SDS011;17195;50.838;7.214;2023-07-31T02:53:13;4.90;;;2.35;;
30398;SDS011;17195;50.838;7.214;2023-07-31T02:55:39;4.28;;;2.35;;
30398;SDS011;17195;50.838;7.214;2023-07-31T02:58:05;4.97;;;2.20;;
30398;SDS011;17195;50.838;7.214;2023-07-31T03:00:31;4.90;;;2.55;;
30398;SDS011;17195;50.838;7.214;2023-07-31T03:02:56;3.42;;;1.92;;
30398;SDS011;17195;50.838;7.214;2023-07-31T03:05:22;4.07;;;2.30;;
30398;SDS011;17195;50.838;7.214;2023-07-31T03:07:47;4.82;;;1.83;;
30398;SDS011;17195;50.838;7.214;2023-07-31T03:10:13;5.43;;;2.25;;
30398;SDS011;17195;50.838;7.214;2023-07-31T03:12:39;3.95;;;2.17;;
30398;SDS011;17195;50.838;7.214;2023-07-31T03:15:05;4.32;;;2.47;;
30398;SDS011;17195;50.838;7.214;2023-07-31T03:17:31;5.60;;;2.42;;
30398;SDS011;17195;50.838;7.214;2023-07-31T03:19:57;7.22;;;2.83;;
30398;SDS011;17195;50.838;7.214;2023-07-31T03:22:22;6.00;;;2.40;;
30398;SDS011;17195;50.838;7.214;2023-07-31T03:24:48;4.60;;;2.28;;
30398;SDS011;17195;50.838;7.214;2023-07-31T03:27:13;7.18;;;2.80;;
30398;SDS011;17195;50.838;7.214;2023-07-31T03:29:39;8.88;;;2.33;;
30398;SDS011;17195;50.838;7.214;2023-07-31T03:32:04;5.70;;;2.65;;
30398;SDS011;17195;50.838;7.214;2023-07-31T03:34:30;6.20;;;2.65;;
30398;SDS011;17195;50.838;7.214;2023-07-31T03:36:57;8.68;;;2.38;;
30398;SDS011;17195;50.838;7.214;2023-07-31T03:39:23;5.47;;;2.22;;
30398;SDS011;17195;50.838;7.214;2023-07-31T03:41:48;5.40;;;2.95;;
30398;SDS011;17195;50.838;7.214;2023-07-31T03:44:14;6.35;;;2.63;;
30398;SDS011;17195;50.838;7.214;2023-07-31T03:46:39;5.30;;;2.78;;
30398;SDS011;17195;50.838;7.214;2023-07-31T03:49:05;4.95;;;2.42;;
30398;SDS011;17195;50.838;7.214;2023-07-31T03:51:30;8.20;;;2.90;;
30398;SDS011;17195;50.838;7.214;2023-07-31T03:53:56;5.28;;;2.95;;
30398;SDS011;17195;50.838;7.214;2023-07-31T03:56:22;7.00;;;2.97;;
30398;SDS011;17195;50.838;7.214;2023-07-31T03:58:47;5.70;;;2.88;;
30398;SDS011;17195;50.838;7.214;2023-07-31T04:01:13;6.63;;;2.80;;
30398;SDS011;17195;50.838;7.214;2023-07-31T04:03:38;7.70;;;2.63;;
30398;SDS011;17195;50.838;7.214;2023-07-31T04:06:04;5.28;;;2.70;;
30398;SDS011;17195;50.838;7.214;2023-07-31T04:08:31;8.45;;;2.88;;
30398;SDS011;17195;50.838;7.214;2023-07-31T04:10:57;7.28;;;2.72;;
30398;SDS011;17195;50.838;7.214;2023-07-31T04:13:23;6.05;;;2.92;;
30398;SDS011;17195;50.838;7.214;2023-07-31T04:15:49;5.28;;;2.13;;
30398;SDS011;17195;50.838;7.214;2023-07-31T04:18:17;6.22;;;2.80;;
30398;SDS011;17195;50.838;7.214;2023-07-31T04:20:43;6.65;;;2.80;;
30398;SDS011;17195;50.838;7.214;2023-07-31T04:23:09;7.90;;;2.90;;
30398;SDS011;17195;50.838;7.214;2023-07-31T04:25:34;4.55;;;2.78;;
30398;SDS011;17195;50.838;7.214;2023-07-31T04:28:00;7.40;;;2.65;;
30398;SDS011;17195;50.838;7.214;2023-07-31T04:30:26;7.00;;;3.10;;
30398;SDS011;17195;50.838;7.214;2023-07-31T04:32:51;6.25;;;2.78;;
30398;SDS011;17195;50.838;7.214;2023-07-31T04:35:17;5.05;;;2.58;;
30398;SDS011;17195;50.838;7.214;2023-07-31T04:37:42;7.72;;;2.65;;
30398;SDS011;17195;50.838;7.214;2023-07-31T04:40:09;5.55;;;2.85;;
30398;SDS011;17195;50.838;7.214;2023-07-31T04:42:35;3.80;;;2.70;;
30398;SDS011;17195;50.838;7.214;2023-07-31T04:45:01;6.38;;;2.65;;
30398;SDS011;17195;50.838;7.214;2023-07-31T04:47:26;5.85;;;2.88;;
30398;SDS011;17195;50.838;7.214;2023-07-31T04:49:52;7.95;;;3.20;;
30398;SDS011;17195;50.838;7.214;2023-07-31T04:52:17;7.25;;;3.10;;
30398;SDS011;17195;50.838;7.214;2023-07-31T04:54:43;4.60;;;2.97;;
30398;SDS011;17195;50.838;7.214;2023-07-31T04:57:08;8.15;;;2.45;;
30398;SDS011;17195;50.838;7.214;2023-07-31T04:59:34;8.18;;;2.90;;
30398;SDS011;17195;50.838;7.214;2023-07-31T05:01:59;3.90;;;2.53;;
30398;SDS011;17195;50.838;7.214;2023-07-31T05:04:25;4.43;;;2.72;;
30398;SDS011;17195;50.838;7.214;2023-07-31T05:06:50;5.35;;;2.47;;
30398;SDS011;17195;50.838;7.214;2023-07-31T05:09:16;6.82;;;2.75;;
30398;SDS011;17195;50.838;7.214;2023-07-31T05:11:42;5.80;;;2.88;;
30398;SDS011;17195;50.838;7.214;2023-07-31T05:14:08;5.97;;;3.10;;
30398;SDS011;17195;50.838;7.214;2023-07-31T05:16:33;4.40;;;3.00;;
30398;SDS011;17195;50.838;7.214;2023-07-31T05:18:59;7.88;;;3.05;;
30398;SDS011;17195;50.838;7.214;2023-07-31T05:21:25;6.32;;;3.05;;
30398;SDS011;17195;50.838;7.214;2023-07-31T05:23:50;5.90;;;3.20;;
30398;SDS011;17195;50.838;7.214;2023-07-31T05:26:16;6.88;;;3.00;;
30398;SDS011;17195;50.838;7.214;2023-07-31T05:28:42;6.60;;;3.00;;
30398;SDS011;17195;50.838;7.214;2023-07-31T05:31:08;6.38;;;3.00;;
30398;SDS011;17195;50.838;7.214;2023-07-31T05:33:33;7.28;;;2.92;;
30398;SDS011;17195;50.838;7.214;2023-07-31T05:35:59;6.65;;;3.25;;
30398;SDS011;17195;50.838;7.214;2023-07-31T05:38:24;5.82;;;2.88;;
30398;SDS011;17195;50.838;7.214;2023-07-31T05:40:50;6.63;;;2.63;;
30398;SDS011;17195;50.838;7.214;2023-07-31T05:43:16;5.97;;;3.22;;
30398;SDS011;17195;50.838;7.214;2023-07-31T05:45:42;6.93;;;2.53;;
30398;SDS011;17195;50.838;7.214;2023-07-31T05:48:08;5.38;;;2.70;;
30398;SDS011;17195;50.838;7.214;2023-07-31T05:50:33;5.32;;;3.00;;
30398;SDS011;17195;50.838;7.214;2023-07-31T05:52:59;4.95;;;3.25;;
30398;SDS011;17195;50.838;7.214;2023-07-31T05:55:25;6.03;;;3.00;;
30398;SDS011;17195;50.838;7.214;2023-07-31T05:57:54;5.30;;;3.10;;
30398;SDS011;17195;50.838;7.214;2023-07-31T06:00:19;6.97;;;3.15;;
30398;SDS011;17195;50.838;7.214;2023-07-31T06:02:46;10.25;;;4.10;;
30398;SDS011;17195;50.838;7.214;2023-07-31T06:05:12;6.63;;;3.30;;
30398;SDS011;17195;50.838;7.214;2023-07-31T06:07:38;6.22;;;3.03;;
30398;SDS011;17195;50.838;7.214;2023-07-31T06:10:03;6.25;;;3.13;;
30398;SDS011;17195;50.838;7.214;2023-07-31T06:12:31;7.22;;;3.40;;
30398;SDS011;17195;50.838;7.214;2023-07-31T06:14:57;5.10;;;2.95;;
30398;SDS011;17195;50.838;7.214;2023-07-31T06:17:23;6.00;;;2.85;;
30398;SDS011;17195;50.838;7.214;2023-07-31T06:19:49;5.57;;;2.80;;
30398;SDS011;17195;50.838;7.214;2023-07-31T06:22:14;6.35;;;2.40;;
30398;SDS011;17195;50.838;7.214;2023-07-31T06:24:40;4.32;;;2.72;;
30398;SDS011;17195;50.838;7.214;2023-07-31T06:27:06;4.35;;;2.90;;
30398;SDS011;17195;50.838;7.214;2023-07-31T06:29:32;13.95;;;2.85;;
30398;SDS011;17195;50.838;7.214;2023-07-31T06:31:57;6.18;;;2.85;;
30398;SDS011;17195;50.838;7.214;2023-07-31T06:34:23;4.43;;;2.60;;
30398;SDS011;17195;50.838;7.214;2023-07-31T06:36:49;6.30;;;2.63;;
30398;SDS011;17195;50.838;7.214;2023-07-31T06:39:14;5.15;;;2.97;;
30398;SDS011;17195;50.838;7.214;2023-07-31T06:41:41;8.02;;;3.22;;
30398;SDS011;17195;50.838;7.214;2023-07-31T06:44:07;10.38;;;3.30;;
30398;SDS011;17195;50.838;7.214;2023-07-31T06:46:33;13.48;;;4.05;;
30398;SDS011;17195;50.838;7.214;2023-07-31T06:48:59;7.25;;;3.20;;
30398;SDS011;17195;50.838;7.214;2023-07-31T06:51:24;12.00;;;3.00;;
30398;SDS011;17195;50.838;7.214;2023-07-31T06:53:50;4.75;;;3.25;;
30398;SDS011;17195;50.838;7.214;2023-07-31T06:56:15;5.03;;;2.88;;
30398;SDS011;17195;50.838;7.214;2023-07-31T06:58:41;7.03;;;3.60;;
30398;SDS011;17195;50.838;7.214;2023-07-31T07:01:07;5.68;;;2.95;;
30398;SDS011;17195;50.838;7.214;2023-07-31T07:03:32;5.63;;;3.65;;
30398;SDS011;17195;50.838;7.214;2023-07-31T07:05:58;5.60;;;3.10;;
30398;SDS011;17195;50.838;7.214;2023-07-31T07:08:24;6.97;;;3.22;;
30398;SDS011;17195;50.838;7.214;2023-07-31T07:10:49;27.58;;;5.15;;
30398;SDS011;17195;50.838;7.214;2023-07-31T07:13:15;5.28;;;3.08;;
30398;SDS011;17195;50.838;7.214;2023-07-31T07:15:41;8.70;;;3.42;;
30398;SDS011;17195;50.838;7.214;2023-07-31T07:18:06;5.25;;;3.22;;
30398;SDS011;17195;50.838;7.214;2023-07-31T07:20:32;6.88;;;3.25;;
30398;SDS011;17195;50.838;7.214;2023-07-31T07:22:57;8.75;;;3.30;;
30398;SDS011;17195;50.838;7.214;2023-07-31T07:25:23;6.35;;;3.08;;
30398;SDS011;17195;50.838;7.214;2023-07-31T07:27:49;6.18;;;2.75;;
30398;SDS011;17195;50.838;7.214;2023-07-31T07:30:14;5.43;;;3.13;;
30398;SDS011;17195;50.838;7.214;2023-07-31T07:32:40;12.98;;;3.58;;
30398;SDS011;17195;50.838;7.214;2023-07-31T07:35:06;8.18;;;3.25;;
30398;SDS011;17195;50.838;7.214;2023-07-31T07:37:32;6.95;;;3.35;;
30398;SDS011;17195;50.838;7.214;2023-07-31T07:39:57;6.97;;;3.47;;
30398;SDS011;17195;50.838;7.214;2023-07-31T07:42:23;6.97;;;3.20;;
30398;SDS011;17195;50.838;7.214;2023-07-31T07:44:48;5.63;;;3.25;;
30398;SDS011;17195;50.838;7.214;2023-07-31T07:47:14;5.97;;;3.45;;
30398;SDS011;17195;50.838;7.214;2023-07-31T07:49:40;5.00;;;2.70;;
30398;SDS011;17195;50.838;7.214;2023-07-31T07:52:05;6.72;;;4.05;;
30398;SDS011;17195;50.838;7.214;2023-07-31T07:54:31;5.53;;;3.20;;
30398;SDS011;17195;50.838;7.214;2023-07-31T07:56:57;6.95;;;2.83;;
30398;SDS011;17195;50.838;7.214;2023-07-31T07:59:22;6.53;;;3.42;;
30398;SDS011;17195;50.838;7.214;2023-07-31T08:01:48;6.35;;;3.35;;
30398;SDS011;17195;50.838;7.214;2023-07-31T08:04:13;8.00;;;3.97;;
30398;SDS011;17195;50.838;7.214;2023-07-31T08:06:39;5.57;;;2.80;;
30398;SDS011;17195;50.838;7.214;2023-07-31T08:09:05;6.28;;;3.30;;
30398;SDS011;17195;50.838;7.214;2023-07-31T08:11:31;8.10;;;3.55;;
30398;SDS011;17195;50.838;7.214;2023-07-31T08:13:57;7.43;;;3.83;;
30398;SDS011;17195;50.838;7.214;2023-07-31T08:16:23;9.13;;;4.00;;
30398;SDS011;17195;50.838;7.214;2023-07-31T08:18:48;9.60;;;4.00;;
30398;SDS011;17195;50.838;7.214;2023-07-31T08:21:14;10.88;;;3.50;;
30398;SDS011;17195;50.838;7.214;2023-07-31T08:23:40;7.57;;;4.22;;
30398;SDS011;17195;50.838;7.214;2023-07-31T08:26:05;11.85;;;3.97;;
30398;SDS011;17195;50.838;7.214;2023-07-31T08:28:31;9.15;;;4.18;;
30398;SDS011;17195;50.838;7.214;2023-07-31T08:30:57;6.70;;;3.70;;
30398;SDS011;17195;50.838;7.214;2023-07-31T08:33:23;8.02;;;4.03;;
30398;SDS011;17195;50.838;7.214;2023-07-31T08:35:48;7.38;;;4.15;;
30398;SDS011;17195;50.838;7.214;2023-07-31T08:38:14;9.73;;;3.78;;
30398;SDS011;17195;50.838;7.214;2023-07-31T08:40:39;7.68;;;3.58;;
30398;SDS011;17195;50.838;7.214;2023-07-31T08:43:05;5.47;;;3.55;;
30398;SDS011;17195;50.838;7.214;2023-07-31T08:45:32;7.78;;;3.63;;
30398;SDS011;17195;50.838;7.214;2023-07-31T08:47:57;6.50;;;3.38;;
30398;SDS011;17195;50.838;7.214;2023-07-31T08:50:24;6.28;;;3.35;;
30398;SDS011;17195;50.838;7.214;2023-07-31T08:52:50;9.02;;;4.13;;
30398;SDS011;17195;50.838;7.214;2023-07-31T08:55:17;6.93;;;4.25;;
30398;SDS011;17195;50.838;7.214;2023-07-31T08:57:48;7.18;;;3.80;;
30398;SDS011;17195;50.838;7.214;2023-07-31T09:00:15;6.72;;;3.42;;
30398;SDS011;17195;50.838;7.214;2023-07-31T09:02:45;6.68;;;3.80;;
30398;SDS011;17195;50.838;7.214;2023-07-31T09:05:12;6.55;;;3.35;;
30398;SDS011;17195;50.838;7.214;2023-07-31T09:07:37;4.22;;;2.63;;
30398;SDS011;17195;50.838;7.214;2023-07-31T09:10:04;7.18;;;3.42;;
30398;SDS011;17195;50.838;7.214;2023-07-31T09:12:30;4.25;;;2.90;;
30398;SDS011;17195;50.838;7.214;2023-07-31T09:14:57;9.82;;;3.72;;
30398;SDS011;17195;50.838;7.214;2023-07-31T09:17:30;5.63;;;3.13;;
30398;SDS011;17195;50.838;7.214;2023-07-31T09:19:56;6.82;;;3.33;;
30398;SDS011;17195;50.838;7.214;2023-07-31T09:22:31;5.97;;;3.30;;
30398;SDS011;17195;50.838;7.214;2023-07-31T09:27:54;7.28;;;2.92;;
30398;SDS011;17195;50.838;7.214;2023-07-31T09:30:22;7.20;;;3.20;;
30398;SDS011;17195;50.838;7.214;2023-07-31T09:32:48;5.70;;;3.00;;
30398;SDS011;17195;50.838;7.214;2023-07-31T09:35:22;7.53;;;2.97;;
30398;SDS011;17195;50.838;7.214;2023-07-31T09:38:03;6.45;;;3.20;;
30398;SDS011;17195;50.838;7.214;2023-07-31T09:40:31;4.82;;;2.95;;
30398;SDS011;17195;50.838;7.214;2023-07-31T09:43:02;6.22;;;3.20;;
30398;SDS011;17195;50.838;7.214;2023-07-31T09:45:29;5.60;;;2.95;;
30398;SDS011;17195;50.838;7.214;2023-07-31T09:47:58;10.38;;;3.50;;
30398;SDS011;17195;50.838;7.214;2023-07-31T09:50:24;5.78;;;2.85;;
30398;SDS011;17195;50.838;7.214;2023-07-31T09:52:52;5.65;;;3.30;;
30398;SDS011;17195;50.838;7.214;2023-07-31T09:55:18;7.22;;;3.03;;
30398;SDS011;17195;50.838;7.214;2023-07-31T09:57:45;14.95;;;6.90;;
30398;SDS011;17195;50.838;7.214;2023-07-31T10:00:15;6.05;;;3.20;;
30398;SDS011;17195;50.838;7.214;2023-07-31T10:02:43;8.40;;;2.67;;
30398;SDS011;17195;50.838;7.214;2023-07-31T10:05:12;5.28;;;2.60;;
30398;SDS011;17195;50.838;7.214;2023-07-31T10:07:39;5.47;;;2.50;;
30398;SDS011;17195;50.838;7.214;2023-07-31T10:10:10;4.47;;;2.83;;
30398;SDS011;17195;50.838;7.214;2023-07-31T10:12:36;5.90;;;3.53;;
30398;SDS011;17195;50.838;7.214;2023-07-31T10:15:03;5.80;;;2.92;;
30398;SDS011;17195;50.838;7.214;2023-07-31T10:17:29;6.20;;;2.78;;
30398;SDS011;17195;50.838;7.214;2023-07-31T10:19:56;3.75;;;2.70;;
30398;SDS011;17195;50.838;7.214;2023-07-31T10:22:26;4.82;;;2.78;;
30398;SDS011;17195;50.838;7.214;2023-07-31T10:24:52;4.95;;;3.00;;
30398;SDS011;17195;50.838;7.214;2023-07-31T10:27:19;8.23;;;3.00;;
30398;SDS011;17195;50.838;7.214;2023-07-31T10:29:45;5.60;;;2.85;;
30398;SDS011;17195;50.838;7.214;2023-07-31T10:32:13;6.30;;;2.95;;
30398;SDS011;17195;50.838;7.214;2023-07-31T10:34:41;5.93;;;2.80;;
30398;SDS011;17195;50.838;7.214;2023-07-31T10:37:23;5.75;;;2.95;;
30398;SDS011;17195;50.838;7.214;2023-07-31T10:42:48;8.80;;;3.00;;
30398;SDS011;17195;50.838;7.214;2023-07-31T10:48:00;6.53;;;3.20;;
30398;SDS011;17195;50.838;7.214;2023-07-31T10:50:31;4.97;;;2.38;;
30398;SDS011;17195;50.838;7.214;2023-07-31T10:53:01;6.50;;;2.92;;
30398;SDS011;17195;50.838;7.214;2023-07-31T10:58:07;5.00;;;2.28;;
30398;SDS011;17195;50.838;7.214;2023-07-31T11:00:36;3.90;;;2.13;;
30398;SDS011;17195;50.838;7.214;2023-07-31T11:03:07;5.68;;;2.25;;
30398;SDS011;17195;50.838;7.214;2023-07-31T11:08:27;4.65;;;2.40;;
30398;SDS011;17195;50.838;7.214;2023-07-31T11:13:29;4.50;;;2.58;;
30398;SDS011;17195;50.838;7.214;2023-07-31T11:15:55;5.50;;;2.65;;
30398;SDS011;17195;50.838;7.214;2023-07-31T11:18:21;3.95;;;2.50;;
30398;SDS011;17195;50.838;7.214;2023-07-31T11:20:47;5.18;;;2.03;;
30398;SDS011;17195;50.838;7.214;2023-07-31T11:23:12;5.35;;;2.00;;
30398;SDS011;17195;50.838;7.214;2023-07-31T11:25:41;4.32;;;2.00;;
30398;SDS011;17195;50.838;7.214;2023-07-31T11:28:14;2.65;;;1.40;;
30398;SDS011;17195;50.838;7.214;2023-07-31T11:30:41;4.32;;;1.42;;
30398;SDS011;17195;50.838;7.214;2023-07-31T11:33:08;1.50;;;1.30;;
30398;SDS011;17195;50.838;7.214;2023-07-31T11:35:36;4.95;;;1.70;;
30398;SDS011;17195;50.838;7.214;2023-07-31T11:38:08;2.78;;;1.40;;
30398;SDS011;17195;50.838;7.214;2023-07-31T11:40:43;5.45;;;1.50;;
30398;SDS011;17195;50.838;7.214;2023-07-31T11:43:10;2.97;;;1.23;;
30398;SDS011;17195;50.838;7.214;2023-07-31T11:45:41;1.20;;;0.80;;
30398;SDS011;17195;50.838;7.214;2023-07-31T11:48:06;1.98;;;1.00;;
30398;SDS011;17195;50.838;7.214;2023-07-31T11:50:33;1.50;;;1.10;;
30398;SDS011;17195;50.838;7.214;2023-07-31T11:53:02;4.03;;;1.05;;
30398;SDS011;17195;50.838;7.214;2023-07-31T11:55:32;1.23;;;0.90;;
30398;SDS011;17195;50.838;7.214;2023-07-31T11:57:58;2.03;;;1.13;;
30398;SDS011;17195;50.838;7.214;2023-07-31T12:00:24;4.13;;;1.30;;
30398;SDS011;17195;50.838;7.214;2023-07-31T12:02:51;3.35;;;0.98;;
30398;SDS011;17195;50.838;7.214;2023-07-31T12:05:17;3.10;;;0.80;;
30398;SDS011;17195;50.838;7.214;2023-07-31T12:07:44;1.08;;;0.93;;
30398;SDS011;17195;50.838;7.214;2023-07-31T12:10:10;1.83;;;0.90;;
30398;SDS011;17195;50.838;7.214;2023-07-31T12:12:36;4.07;;;0.90;;
30398;SDS011;17195;50.838;7.214;2023-07-31T12:15:01;3.67;;;1.02;;
30398;SDS011;17195;50.838;7.214;2023-07-31T12:17:27;1.75;;;0.80;;
30398;SDS011;17195;50.838;7.214;2023-07-31T12:19:53;2.75;;;1.10;;
30398;SDS011;17195;50.838;7.214;2023-07-31T12:22:19;1.30;;;0.77;;
30398;SDS011;17195;50.838;7.214;2023-07-31T12:24:46;1.70;;;0.85;;
30398;SDS011;17195;50.838;7.214;2023-07-31T12:27:12;1.80;;;0.88;;
30398;SDS011;17195;50.838;7.214;2023-07-31T12:29:38;1.00;;;0.80;;
30398;SDS011;17195;50.838;7.214;2023-07-31T12:32:18;2.13;;;1.15;;
30398;SDS011;17195;50.838;7.214;2023-07-31T12:34:50;3.50;;;1.45;;
30398;SDS011;17195;50.838;7.214;2023-07-31T12:37:16;4.47;;;0.98;;
30398;SDS011;17195;50.838;7.214;2023-07-31T12:39:42;2.90;;;1.00;;
30398;SDS011;17195;50.838;7.214;2023-07-31T12:42:08;3.08;;;1.38;;
30398;SDS011;17195;50.838;7.214;2023-07-31T12:44:33;5.20;;;1.05;;
30398;SDS011;17195;50.838;7.214;2023-07-31T12:46:59;1.75;;;1.15;;
30398;SDS011;17195;50.838;7.214;2023-07-31T12:49:24;2.03;;;1.25;;
30398;SDS011;17195;50.838;7.214;2023-07-31T12:51:50;2.38;;;1.20;;
30398;SDS011;17195;50.838;7.214;2023-07-31T12:54:16;1.20;;;1.10;;
30398;SDS011;17195;50.838;7.214;2023-07-31T12:56:41;1.55;;;1.33;;
30398;SDS011;17195;50.838;7.214;2023-07-31T12:59:07;2.72;;;1.77;;
30398;SDS011;17195;50.838;7.214;2023-07-31T13:01:32;3.53;;;1.50;;
30398;SDS011;17195;50.838;7.214;2023-07-31T13:03:58;2.70;;;2.00;;
30398;SDS011;17195;50.838;7.214;2023-07-31T13:06:24;3.90;;;2.40;;
30398;SDS011;17195;50.838;7.214;2023-07-31T13:08:51;8.35;;;2.75;;
30398;SDS011;17195;50.838;7.214;2023-07-31T13:11:16;3.30;;;2.00;;
30398;SDS011;17195;50.838;7.214;2023-07-31T13:13:42;4.22;;;2.33;;
30398;SDS011;17195;50.838;7.214;2023-07-31T13:16:07;3.28;;;2.10;;
30398;SDS011;17195;50.838;7.214;2023-07-31T13:18:33;4.80;;;2.40;;
30398;SDS011;17195;50.838;7.214;2023-07-31T13:20:59;6.78;;;2.35;;
30398;SDS011;17195;50.838;7.214;2023-07-31T13:23:24;3.33;;;2.10;;
30398;SDS011;17195;50.838;7.214;2023-07-31T13:25:50;3.08;;;2.40;;
30398;SDS011;17195;50.838;7.214;2023-07-31T13:28:15;3.80;;;2.72;;
30398;SDS011;17195;50.838;7.214;2023-07-31T13:30:41;4.40;;;2.90;;
30398;SDS011;17195;50.838;7.214;2023-07-31T13:33:06;3.47;;;2.58;;
30398;SDS011;17195;50.838;7.214;2023-07-31T13:35:32;5.45;;;3.03;;
30398;SDS011;17195;50.838;7.214;2023-07-31T13:37:58;4.13;;;3.03;;
30398;SDS011;17195;50.838;7.214;2023-07-31T13:40:23;5.10;;;2.75;;
30398;SDS011;17195;50.838;7.214;2023-07-31T13:42:49;3.95;;;2.83;;
30398;SDS011;17195;50.838;7.214;2023-07-31T13:45:14;3.80;;;2.47;;
30398;SDS011;17195;50.838;7.214;2023-07-31T13:47:40;3.67;;;2.50;;
30398;SDS011;17195;50.838;7.214;2023-07-31T13:50:05;3.60;;;2.63;;
30398;SDS011;17195;50.838;7.214;2023-07-31T13:52:31;3.28;;;2.42;;
30398;SDS011;17195;50.838;7.214;2023-07-31T13:54:57;2.67;;;2.45;;
30398;SDS011;17195;50.838;7.214;2023-07-31T13:57:22;3.17;;;2.35;;
30398;SDS011;17195;50.838;7.214;2023-07-31T13:59:48;3.70;;;2.30;;
30398;SDS011;17195;50.838;7.214;2023-07-31T14:02:14;3.75;;;2.15;;
30398;SDS011;17195;50.838;7.214;2023-07-31T14:04:40;2.67;;;2.35;;
30398;SDS011;17195;50.838;7.214;2023-07-31T14:07:05;2.67;;;2.10;;
30398;SDS011;17195;50.838;7.214;2023-07-31T14:09:31;2.47;;;1.98;;
30398;SDS011;17195;50.838;7.214;2023-07-31T14:11:57;2.95;;;1.67;;
30398;SDS011;17195;50.838;7.214;2023-07-31T14:14:22;1.48;;;1.30;;
30398;SDS011;17195;50.838;7.214;2023-07-31T14:16:48;3.58;;;1.65;;
30398;SDS011;17195;50.838;7.214;2023-07-31T14:19:13;3.03;;;1.73;;
30398;SDS011;17195;50.838;7.214;2023-07-31T14:21:39;3.83;;;1.70;;
30398;SDS011;17195;50.838;7.214;2023-07-31T14:24:05;1.75;;;1.45;;
30398;SDS011;17195;50.838;7.214;2023-07-31T14:26:30;3.55;;;1.90;;
30398;SDS011;17195;50.838;7.214;2023-07-31T14:28:56;2.75;;;1.80;;
30398;SDS011;17195;50.838;7.214;2023-07-31T14:31:21;3.83;;;1.75;;
30398;SDS011;17195;50.838;7.214;2023-07-31T14:33:47;2.92;;;2.00;;
30398;SDS011;17195;50.838;7.214;2023-07-31T14:36:13;2.40;;;2.00;;
30398;SDS011;17195;50.838;7.214;2023-07-31T14:38:38;3.70;;;2.20;;
30398;SDS011;17195;50.838;7.214;2023-07-31T14:41:04;2.28;;;1.83;;
30398;SDS011;17195;50.838;7.214;2023-07-31T14:43:29;2.67;;;1.85;;
30398;SDS011;17195;50.838;7.214;2023-07-31T14:45:55;2.33;;;1.88;;
30398;SDS011;17195;50.838;7.214;2023-07-31T14:48:24;3.65;;;2.08;;
30398;SDS011;17195;50.838;7.214;2023-07-31T14:50:49;2.17;;;1.75;;
30398;SDS011;17195;50.838;7.214;2023-07-31T14:53:15;2.65;;;1.65;;
30398;SDS011;17195;50.838;7.214;2023-07-31T14:55:41;4.20;;;1.63;;
30398;SDS011;17195;50.838;7.214;2023-07-31T14:58:06;3.35;;;1.50;;
30398;SDS011;17195;50.838;7.214;2023-07-31T15:00:32;1.83;;;1.40;;
30398;SDS011;17195;50.838;7.214;2023-07-31T15:02:57;3.17;;;1.98;;
30398;SDS011;17195;50.838;7.214;2023-07-31T15:05:23;2.40;;;1.55;;